Time;durP1;ratioP1;P1;durP2;ratioP2;P2;SDS_P1;SDS_P2;PMS_P1;PMS_P2;Temp;Humidity;BMP_temperature;BMP_pressure;BME280_temperature;BME280_humidity;BME280_pressure;Samples;Min_cycle;Max_cycle;Signal;HPM_P1;HPM_P2
2023/05/30 00:01:46;;;;;;;2.38;0.82;;;14.90;99.30;;;;;;5033786;28;20408;-73
2023/05/30 00:04:16;;;;;;;2.80;0.60;;;14.90;99.10;;;;;;5035367;28;20537;-73
2023/05/30 00:15:33;;;;;;;2.10;0.60;;;14.70;98.00;;;;;;5037559;28;20465;-73
2023/05/30 00:18:02;;;;;;;0.37;0.30;;;14.60;97.50;;;;;;5027611;28;20911;-73
2023/05/30 00:20:30;;;;;;;0.60;0.52;;;14.60;97.70;;;;;;5028167;28;20433;-73
2023/05/30 00:23:00;;;;;;;0.43;0.43;;;14.70;97.60;;;;;;5032317;28;20436;-73
2023/05/30 00:25:32;;;;;;;1.02;0.45;;;14.60;97.40;;;;;;5032596;28;20433;-73
2023/05/30 00:27:59;;;;;;;1.00;0.50;;;14.60;96.80;;;;;;5031708;28;20435;-73
2023/05/30 00:30:26;;;;;;;0.45;0.45;;;14.60;96.50;;;;;;5032204;28;20421;-73
2023/05/30 00:32:52;;;;;;;0.47;0.45;;;14.50;96.30;;;;;;5033393;28;20454;-73
2023/05/30 00:35:19;;;;;;;0.35;0.35;;;14.40;96.30;;;;;;5029118;28;20781;-73
2023/05/30 00:37:46;;;;;;;1.92;1.17;;;14.50;95.70;;;;;;5030720;28;20939;-73
2023/05/30 00:40:13;;;;;;;3.00;0.70;;;14.40;95.80;;;;;;5032406;28;20441;-73
2023/05/30 00:42:39;;;;;;;0.50;0.50;;;14.30;95.40;;;;;;5031128;28;20468;-73
2023/05/30 00:45:07;;;;;;;2.20;1.55;;;14.30;95.40;;;;;;5031796;28;20429;-73
2023/05/30 00:47:34;;;;;;;0.30;0.30;;;14.30;95.40;;;;;;5032401;28;20924;-73
2023/05/30 00:50:01;;;;;;;0.30;0.30;;;14.30;95.00;;;;;;5033956;28;20453;-73
2023/05/30 00:52:29;;;;;;;1.70;0.30;;;14.30;95.00;;;;;;5033005;28;20532;-72
2023/05/30 00:55:02;;;;;;;1.42;0.63;;;14.20;94.70;;;;;;5030921;28;20437;-73
2023/05/30 00:57:33;;;;;;;0.40;0.40;;;14.20;95.00;;;;;;5063926;28;20456;-73
2023/05/30 01:00:03;;;;;;;0.50;0.35;;;14.20;94.70;;;;;;5030226;28;20522;-73
2023/05/30 01:02:33;;;;;;;4.05;1.15;;;14.20;94.90;;;;;;5033392;28;20429;-73
2023/05/30 01:05:01;;;;;;;1.65;0.50;;;14.10;94.50;;;;;;5031559;28;20429;-73
2023/05/30 01:07:27;;;;;;;0.60;0.60;;;14.10;94.30;;;;;;5032930;28;21161;-73
2023/05/30 01:09:55;;;;;;;1.95;0.25;;;14.10;94.30;;;;;;5033432;28;20510;-73
2023/05/30 01:12:44;;;;;;;0.90;0.50;;;14.00;94.10;;;;;;5038902;28;20916;-73
2023/05/30 01:15:18;;;;;;;1.70;0.65;;;14.00;94.20;;;;;;5031043;28;20460;-73
2023/05/30 01:18:01;;;;;;;0.30;0.30;;;13.90;94.00;;;;;;5032591;28;20433;-72
2023/05/30 01:20:37;;;;;;;2.30;0.47;;;13.80;93.80;;;;;;5031850;28;20507;-72
2023/05/30 01:23:45;;;;;;;0.20;0.20;;;13.80;93.60;;;;;;5062659;28;20450;-73
2023/05/30 01:27:06;;;;;;;3.53;0.90;;;13.80;93.90;;;;;;5010770;28;20515;-73
2023/05/30 01:29:36;;;;;;;0.90;0.73;;;13.80;93.60;;;;;;4990859;28;20431;-73
2023/05/30 01:32:05;;;;;;;0.32;0.32;;;13.70;93.60;;;;;;5011143;28;20426;-72
2023/05/30 01:34:31;;;;;;;0.43;0.43;;;13.70;93.70;;;;;;5010391;28;20446;-73
2023/05/30 01:36:58;;;;;;;6.40;1.20;;;13.70;93.90;;;;;;5010214;28;20467;-73
2023/05/30 01:39:25;;;;;;;0.63;0.63;;;13.70;93.80;;;;;;5011164;28;21009;-73
2023/05/30 01:42:08;;;;;;;2.15;0.43;;;13.60;93.80;;;;;;5009064;28;20780;-73
2023/05/30 01:44:58;;;;;;;0.90;0.30;;;13.60;93.70;;;;;;5026825;28;21054;-73
2023/05/30 01:47:48;;;;;;;1.10;0.65;;;13.50;93.60;;;;;;5010568;28;20470;-74
2023/05/30 01:50:23;;;;;;;0.32;0.32;;;13.50;93.90;;;;;;5010320;28;20435;-74
2023/05/30 01:52:57;;;;;;;1.70;0.50;;;13.40;93.70;;;;;;5011987;28;20518;-74
2023/05/30 01:55:25;;;;;;;0.83;0.47;;;13.30;93.50;;;;;;5011478;28;20427;-73
2023/05/30 01:57:55;;;;;;;0.70;0.70;;;13.40;93.80;;;;;;5010011;28;20458;-73
2023/05/30 02:00:24;;;;;;;1.40;0.32;;;13.40;93.90;;;;;;5009952;28;20438;-73
2023/05/30 02:02:51;;;;;;;0.63;0.63;;;13.30;93.50;;;;;;5027845;28;20435;-73
2023/05/30 02:05:20;;;;;;;2.00;0.28;;;13.20;93.40;;;;;;5029438;28;20483;-73
2023/05/30 02:07:47;;;;;;;1.45;0.55;;;13.10;93.40;;;;;;5031784;28;20536;-73
2023/05/30 02:10:17;;;;;;;0.60;0.60;;;13.10;93.60;;;;;;5064268;28;20903;-73
2023/05/30 02:12:45;;;;;;;0.25;0.25;;;13.10;93.80;;;;;;5034311;28;20429;-73
2023/05/30 02:15:12;;;;;;;0.70;0.70;;;13.00;93.80;;;;;;5029699;28;20438;-73
2023/05/30 02:17:38;;;;;;;0.65;0.30;;;13.00;93.80;;;;;;5035120;28;20433;-73
2023/05/30 02:20:06;;;;;;;1.80;0.70;;;13.10;94.30;;;;;;5035041;28;20939;-73
2023/05/30 02:22:32;;;;;;;8.40;0.40;;;13.00;94.40;;;;;;5030516;28;20522;-73
2023/05/30 02:24:59;;;;;;;0.50;0.50;;;13.00;94.60;;;;;;5031612;28;20802;-73
2023/05/30 02:27:26;;;;;;;0.85;0.73;;;12.90;94.80;;;;;;5061254;28;20630;-73
2023/05/30 02:29:53;;;;;;;0.67;0.37;;;12.90;99.90;;;;;;5033085;28;20507;-73
2023/05/30 02:32:21;;;;;;;0.40;0.40;;;12.80;95.20;;;;;;5033576;28;20429;-73
2023/05/30 02:34:47;;;;;;;3.10;0.77;;;12.70;95.10;;;;;;5034428;28;20441;-73
2023/05/30 02:37:14;;;;;;;3.20;0.47;;;12.70;95.60;;;;;;5032602;28;20430;-73
2023/05/30 02:39:41;;;;;;;0.45;0.45;;;12.70;99.90;;;;;;5034659;28;20433;-73
2023/05/30 02:42:08;;;;;;;0.77;0.47;;;12.70;96.40;;;;;;5033613;28;20429;-72
2023/05/30 02:44:37;;;;;;;2.80;0.70;;;12.80;97.10;;;;;;5033115;28;20795;-73
2023/05/30 02:47:04;;;;;;;1.30;0.52;;;12.70;97.10;;;;;;5034247;28;20977;-73
2023/05/30 02:49:31;;;;;;;0.70;0.65;;;12.70;97.70;;;;;;5035719;28;20425;-73
2023/05/30 02:51:58;;;;;;;0.60;0.60;;;12.60;98.60;;;;;;5031958;28;20471;-73
2023/05/30 02:54:24;;;;;;;2.25;0.75;;;12.60;99.10;;;;;;5034014;28;20490;-73
2023/05/30 02:56:51;;;;;;;1.75;0.47;;;12.60;99.50;;;;;;5063864;28;20676;-73
2023/05/30 02:59:18;;;;;;;0.40;0.40;;;12.60;99.90;;;;;;5031797;28;21225;-73
2023/05/30 03:01:44;;;;;;;0.65;0.65;;;12.60;99.90;;;;;;5032048;28;20469;-73
2023/05/30 03:04:12;;;;;;;0.38;0.38;;;12.50;99.90;;;;;;5032765;28;20517;-73
2023/05/30 03:06:38;;;;;;;0.80;0.68;;;12.50;99.90;;;;;;5033829;28;20687;-73
2023/05/30 03:09:05;;;;;;;0.60;0.60;;;12.40;99.90;;;;;;5033823;28;20466;-73
2023/05/30 03:11:32;;;;;;;0.57;0.57;;;12.40;99.90;;;;;;5039010;28;20468;-73
2023/05/30 03:13:59;;;;;;;1.60;0.70;;;12.30;99.90;;;;;;5035432;28;20531;-73
2023/05/30 03:16:26;;;;;;;0.67;0.67;;;12.30;99.90;;;;;;5033420;28;20449;-73
2023/05/30 03:18:53;;;;;;;0.30;0.30;;;12.30;99.90;;;;;;5032513;28;20644;-74
2023/05/30 03:21:23;;;;;;;1.00;0.80;;;12.20;99.90;;;;;;5034107;28;20447;-73
2023/05/30 03:23:51;;;;;;;2.30;0.90;;;12.20;99.90;;;;;;5031846;28;20964;-73
2023/05/30 03:26:20;;;;;;;6.88;1.10;;;12.20;99.90;;;;;;5062830;28;20437;-73
2023/05/30 03:28:46;;;;;;;0.30;0.30;;;12.20;99.90;;;;;;5033085;28;20511;-73
2023/05/30 03:31:13;;;;;;;0.63;0.40;;;12.20;99.90;;;;;;5031210;28;20425;-73
2023/05/30 03:33:40;;;;;;;0.30;0.28;;;12.20;99.90;;;;;;5034925;28;20441;-73
2023/05/30 03:36:07;;;;;;;0.40;0.40;;;12.20;99.90;;;;;;5032435;28;20450;-73
2023/05/30 03:38:35;;;;;;;0.60;0.40;;;12.20;99.90;;;;;;5032006;28;20437;-73
2023/05/30 03:41:02;;;;;;;2.67;0.50;;;12.20;99.90;;;;;;5032226;28;20437;-73
2023/05/30 03:43:31;;;;;;;0.60;0.40;;;12.20;99.90;;;;;;5032428;28;20421;-73
2023/05/30 03:45:58;;;;;;;0.88;0.50;;;12.20;99.90;;;;;;5031578;28;21076;-73
2023/05/30 03:48:25;;;;;;;0.90;0.40;;;12.20;99.90;;;;;;5031782;28;20445;-73
2023/05/30 03:50:51;;;;;;;1.48;0.43;;;12.20;99.90;;;;;;5030987;28;20919;-73
2023/05/30 03:53:18;;;;;;;0.55;0.55;;;12.30;99.90;;;;;;5033130;28;20918;-73
2023/05/30 03:55:45;;;;;;;2.60;0.60;;;12.20;99.90;;;;;;5031718;28;20425;-73
2023/05/30 03:58:12;;;;;;;1.73;0.98;;;12.20;99.90;;;;;;5031313;28;20457;-73
2023/05/30 04:00:38;;;;;;;1.60;0.50;;;12.30;99.90;;;;;;5033004;28;20441;-73
2023/05/30 04:03:05;;;;;;;0.50;0.50;;;12.40;99.90;;;;;;5031983;28;20432;-73
2023/05/30 04:05:32;;;;;;;0.47;0.47;;;12.40;99.90;;;;;;5032973;28;20529;-73
2023/05/30 04:07:59;;;;;;;0.80;0.60;;;12.50;99.90;;;;;;5033769;28;21026;-73
2023/05/30 04:10:25;;;;;;;0.60;0.60;;;12.50;99.90;;;;;;5066484;28;20488;-73
2023/05/30 04:12:52;;;;;;;2.10;0.80;;;12.50;99.90;;;;;;5036664;28;20431;-73
2023/05/30 04:15:19;;;;;;;5.10;0.90;;;12.50;99.90;;;;;;5034068;28;20487;-73
2023/05/30 04:17:46;;;;;;;0.25;0.25;;;12.60;99.90;;;;;;5062075;28;20457;-73
2023/05/30 04:20:13;;;;;;;0.90;0.53;;;12.60;99.90;;;;;;5031665;28;21208;-74
2023/05/30 04:22:39;;;;;;;3.10;1.00;;;12.60;99.90;;;;;;5033805;28;20425;-73
2023/05/30 04:25:07;;;;;;;2.08;0.40;;;12.70;99.90;;;;;;5031295;28;21761;-73
2023/05/30 04:27:34;;;;;;;4.40;1.55;;;12.70;99.90;;;;;;5062864;28;20430;-73
2023/05/30 04:30:03;;;;;;;1.40;0.80;;;12.70;99.90;;;;;;5028303;28;20434;-73
2023/05/30 04:32:33;;;;;;;3.60;0.70;;;12.70;99.90;;;;;;5031365;28;20439;-73
2023/05/30 04:35:03;;;;;;;4.30;0.68;;;12.80;99.90;;;;;;5031926;28;21601;-73
2023/05/30 04:37:30;;;;;;;0.80;0.70;;;12.80;99.90;;;;;;5033349;28;20500;-74
2023/05/30 04:39:57;;;;;;;0.98;0.43;;;12.90;99.90;;;;;;5031188;28;20914;-73
2023/05/30 04:42:26;;;;;;;0.30;0.30;;;13.10;99.90;;;;;;5063933;28;20848;-73
2023/05/30 04:44:54;;;;;;;1.10;0.57;;;13.40;99.90;;;;;;5032889;28;21036;-73
2023/05/30 04:47:24;;;;;;;0.30;0.30;;;13.70;99.90;;;;;;5033102;28;20469;-74
2023/05/30 04:49:53;;;;;;;1.07;0.70;;;14.00;99.90;;;;;;5035813;28;20494;-73
2023/05/30 04:52:21;;;;;;;1.50;0.93;;;14.30;99.90;;;;;;5033135;28;20482;-73
2023/05/30 04:54:48;;;;;;;0.60;0.60;;;14.60;99.90;;;;;;5032023;28;20742;-74
2023/05/30 04:57:14;;;;;;;0.25;0.25;;;14.70;99.90;;;;;;5032988;28;20444;-74
2023/05/30 04:59:41;;;;;;;0.50;0.30;;;14.90;99.90;;;;;;5032194;28;20578;-72
2023/05/30 05:02:09;;;;;;;1.88;0.50;;;15.00;99.90;;;;;;5034412;28;21005;-73
2023/05/30 05:04:36;;;;;;;3.45;1.02;;;15.30;99.90;;;;;;5028629;28;20781;-73
2023/05/30 05:07:03;;;;;;;1.50;0.70;;;15.60;99.90;;;;;;5031133;28;20441;-73
2023/05/30 05:09:30;;;;;;;1.10;1.00;;;15.90;99.90;;;;;;5030902;28;20520;-73
2023/05/30 05:12:04;;;;;;;1.40;0.80;;;16.10;99.90;;;;;;5029053;28;20436;-73
2023/05/30 05:14:31;;;;;;;2.15;0.40;;;16.20;99.90;;;;;;5032946;28;20465;-73
2023/05/30 05:17:00;;;;;;;1.80;0.68;;;16.40;99.90;;;;;;5029711;28;20449;-75
2023/05/30 05:19:26;;;;;;;0.40;0.40;;;16.80;99.90;;;;;;5033685;28;20528;-74
2023/05/30 05:21:53;;;;;;;2.07;0.77;;;17.00;99.90;;;;;;5063574;28;20522;-74
2023/05/30 05:24:20;;;;;;;2.83;0.88;;;17.10;99.90;;;;;;5033766;28;20439;-74
2023/05/30 05:26:46;;;;;;;1.33;0.93;;;17.20;99.90;;;;;;5016824;28;20431;-74
2023/05/30 05:29:16;;;;;;;4.55;0.73;;;17.20;99.90;;;;;;5027197;28;20465;-75
2023/05/30 05:31:43;;;;;;;0.35;0.35;;;17.20;99.90;;;;;;5059951;28;20464;-75
2023/05/30 05:34:10;;;;;;;5.40;1.00;;;17.30;99.90;;;;;;5024280;28;20442;-75
2023/05/30 05:36:37;;;;;;;2.55;0.70;;;17.30;99.90;;;;;;5028346;28;20433;-75
2023/05/30 05:39:04;;;;;;;1.20;0.50;;;17.40;99.90;;;;;;5026742;28;20530;-75
2023/05/30 05:41:32;;;;;;;3.33;0.68;;;17.10;99.90;;;;;;5029837;28;20486;-75
2023/05/30 05:43:58;;;;;;;0.70;0.70;;;16.90;99.90;;;;;;5060126;28;20434;-75
2023/05/30 05:46:25;;;;;;;2.83;0.60;;;16.50;99.90;;;;;;5022101;28;20444;-75
2023/05/30 05:48:54;;;;;;;0.30;0.30;;;16.20;99.90;;;;;;5026287;28;21171;-75
2023/05/30 05:51:21;;;;;;;3.33;0.33;;;15.90;99.90;;;;;;5051697;28;20439;-75
2023/05/30 05:53:48;;;;;;;2.30;0.60;;;15.60;99.90;;;;;;5028223;28;20538;-75
2023/05/30 05:56:15;;;;;;;1.02;0.55;;;15.40;99.90;;;;;;5032522;28;20429;-74
2023/05/30 05:58:42;;;;;;;4.43;1.00;;;15.40;99.90;;;;;;5024186;28;20522;-75
2023/05/30 06:01:09;;;;;;;3.50;1.00;;;15.70;99.90;;;;;;5028112;28;20517;-75
2023/05/30 06:03:36;;;;;;;1.20;1.10;;;16.10;99.90;;;;;;5032622;28;20715;-75
2023/05/30 06:06:03;;;;;;;0.80;0.60;;;16.80;99.90;;;;;;5035265;28;20456;-74
2023/05/30 06:08:30;;;;;;;2.28;0.52;;;17.50;99.90;;;;;;5035223;28;20432;-75
2023/05/30 06:10:57;;;;;;;1.13;0.60;;;17.80;99.90;;;;;;5033460;28;21130;-75
2023/05/30 06:13:24;;;;;;;1.70;0.60;;;18.10;99.90;;;;;;5034847;28;20810;-74
2023/05/30 06:15:51;;;;;;;1.20;0.47;;;18.00;99.90;;;;;;5035953;28;20440;-76
2023/05/30 06:18:18;;;;;;;0.57;0.57;;;17.70;99.90;;;;;;5034555;28;20437;-75
2023/05/30 06:20:45;;;;;;;2.50;1.17;;;17.40;99.90;;;;;;5032502;28;20524;-75
2023/05/30 06:23:12;;;;;;;1.40;0.50;;;17.50;99.90;;;;;;5034323;28;21065;-75
2023/05/30 06:25:40;;;;;;;4.15;0.57;;;17.80;99.90;;;;;;5062907;28;20528;-74
2023/05/30 06:28:09;;;;;;;2.75;0.45;;;18.20;99.90;;;;;;5034767;28;20436;-75
2023/05/30 06:30:36;;;;;;;1.65;0.73;;;18.60;99.90;;;;;;5032221;28;20437;-76
2023/05/30 06:33:03;;;;;;;5.32;0.73;;;18.70;99.90;;;;;;5034502;28;20448;-75
2023/05/30 06:35:29;;;;;;;7.55;0.75;;;18.60;99.90;;;;;;5032965;28;20987;-75
2023/05/30 06:37:57;;;;;;;1.90;0.90;;;18.70;99.90;;;;;;5034815;28;20519;-73
2023/05/30 06:40:24;;;;;;;4.90;0.70;;;18.80;99.90;;;;;;5032526;28;20442;-74
2023/05/30 06:42:51;;;;;;;0.38;0.38;;;18.50;99.90;;;;;;5065863;28;20772;-74
2023/05/30 06:45:18;;;;;;;0.30;0.30;;;18.50;99.90;;;;;;5031815;28;21171;-73
2023/05/30 06:47:47;;;;;;;0.80;0.50;;;18.70;99.90;;;;;;5037572;28;20483;-74
2023/05/30 06:50:14;;;;;;;1.27;0.68;;;18.90;99.90;;;;;;5034914;28;21738;-74
2023/05/30 06:52:41;;;;;;;0.60;0.40;;;19.40;99.90;;;;;;5035675;28;20536;-72
2023/05/30 06:55:08;;;;;;;2.50;0.73;;;20.10;99.90;;;;;;5032327;28;20439;-72
2023/05/30 06:57:36;;;;;;;0.30;0.30;;;20.40;99.90;;;;;;5034752;28;20853;-72
2023/05/30 07:00:05;;;;;;;0.77;0.63;;;20.30;99.90;;;;;;5033513;28;22496;-72
2023/05/30 07:02:34;;;;;;;3.58;0.68;;;20.30;99.90;;;;;;5033696;28;20923;-73
2023/05/30 07:05:01;;;;;;;1.70;0.70;;;20.20;99.90;;;;;;5033677;28;20432;-72
2023/05/30 07:07:27;;;;;;;5.70;1.08;;;20.20;99.90;;;;;;5033674;28;20738;-73
2023/05/30 07:09:55;;;;;;;1.77;0.57;;;20.20;99.90;;;;;;5033801;28;20468;-72
2023/05/30 07:12:22;;;;;;;2.35;1.00;;;20.50;99.90;;;;;;5032078;28;20442;-73
2023/05/30 07:14:51;;;;;;;0.27;0.27;;;20.90;99.90;;;;;;5032929;28;20439;-73
2023/05/30 07:17:18;;;;;;;1.02;0.93;;;21.40;99.90;;;;;;5031858;28;20445;-73
2023/05/30 07:19:46;;;;;;;0.70;0.40;;;21.70;99.90;;;;;;5032705;28;20437;-73
2023/05/30 07:22:13;;;;;;;0.50;0.50;;;22.40;99.90;;;;;;5062389;28;20437;-73
2023/05/30 07:24:40;;;;;;;2.78;1.00;;;22.30;99.90;;;;;;5033435;28;20437;-72
2023/05/30 07:27:07;;;;;;;1.17;0.80;;;22.30;99.90;;;;;;5035147;28;21006;-73
2023/05/30 07:29:33;;;;;;;1.00;0.90;;;22.40;99.90;;;;;;5032443;28;20427;-73
2023/05/30 07:32:00;;;;;;;2.00;0.70;;;22.10;99.90;;;;;;5033904;28;20482;-73
2023/05/30 07:34:27;;;;;;;1.50;0.60;;;21.60;99.90;;;;;;5032124;28;20532;-72
2023/05/30 07:36:53;;;;;;;3.30;0.40;;;21.50;99.90;;;;;;5033850;28;20456;-73
2023/05/30 07:39:20;;;;;;;0.90;0.80;;;20.90;99.90;;;;;;5031757;28;20508;-72
2023/05/30 07:41:47;;;;;;;3.50;0.80;;;20.80;99.90;;;;;;5033432;28;20445;-73
2023/05/30 07:44:17;;;;;;;0.43;0.43;;;20.10;99.90;;;;;;5030379;28;20437;-72
2023/05/30 07:46:44;;;;;;;0.60;0.50;;;20.10;99.90;;;;;;5036339;28;20429;-72
2023/05/30 07:49:11;;;;;;;0.70;0.50;;;20.30;99.90;;;;;;5031125;28;20742;-72
2023/05/30 07:51:38;;;;;;;0.43;0.40;;;20.90;99.90;;;;;;5040541;28;20438;-72
2023/05/30 07:54:05;;;;;;;2.10;0.60;;;21.70;99.90;;;;;;5030630;28;20983;-73
2023/05/30 07:56:32;;;;;;;1.15;0.60;;;22.30;99.90;;;;;;5031786;28;20447;-73
2023/05/30 07:59:02;;;;;;;0.80;0.67;;;22.60;99.90;;;;;;5031645;28;20503;-73
2023/05/30 08:01:29;;;;;;;0.75;0.75;;;22.80;99.90;;;;;;5024111;28;20532;-72
2023/05/30 08:03:55;;;;;;;1.95;0.57;;;22.80;99.90;;;;;;5028952;28;21178;-72
2023/05/30 08:06:22;;;;;;;0.80;0.70;;;23.00;99.90;;;;;;5030755;28;20486;-73
2023/05/30 08:08:49;;;;;;;1.50;0.90;;;23.40;99.90;;;;;;5033434;28;20430;-73
2023/05/30 08:11:20;;;;;;;0.55;0.50;;;23.40;99.90;;;;;;5029335;28;21346;-72
2023/05/30 08:13:47;;;;;;;1.10;0.50;;;23.30;99.90;;;;;;5032758;28;21634;-72
2023/05/30 08:16:20;;;;;;;0.77;0.43;;;23.10;99.90;;;;;;5032040;28;20440;-73
2023/05/30 08:18:47;;;;;;;2.08;0.65;;;23.00;99.90;;;;;;5046962;28;20518;-73
2023/05/30 08:21:17;;;;;;;0.50;0.50;;;23.30;99.90;;;;;;5062585;28;20430;-72
2023/05/30 08:23:45;;;;;;;0.20;0.20;;;23.30;99.90;;;;;;5031389;28;20536;-73
2023/05/30 08:26:11;;;;;;;0.65;0.65;;;23.50;99.90;;;;;;5032306;28;21769;-72
2023/05/30 08:28:38;;;;;;;5.35;0.73;;;23.70;99.90;;;;;;5033462;28;20502;-74
2023/05/30 08:31:05;;;;;;;1.50;0.70;;;23.50;99.90;;;;;;5031086;28;20435;-72
2023/05/30 08:33:34;;;;;;;0.70;0.43;;;23.50;99.90;;;;;;5035361;28;20459;-71
2023/05/30 08:36:01;;;;;;;0.90;0.73;;;23.70;99.90;;;;;;5058888;28;20433;-72
2023/05/30 08:38:28;;;;;;;3.80;0.98;;;24.00;99.90;;;;;;5064119;28;20463;-73
2023/05/30 08:40:55;;;;;;;1.00;0.40;;;24.10;99.90;;;;;;5061509;28;20437;-72
2023/05/30 08:43:22;;;;;;;2.40;0.80;;;24.00;99.90;;;;;;5031823;28;20983;-72
2023/05/30 08:45:52;;;;;;;4.50;0.50;;;24.10;99.90;;;;;;5030876;28;20425;-73
2023/05/30 08:48:23;;;;;;;0.88;0.70;;;24.00;99.90;;;;;;5022048;28;20444;-72
2023/05/30 08:50:51;;;;;;;2.55;0.70;;;23.80;99.90;;;;;;5030689;28;20500;-73
2023/05/30 08:53:30;;;;;;;1.20;0.50;;;23.60;99.90;;;;;;5062158;28;20442;-73
2023/05/30 08:56:10;;;;;;;0.57;0.57;;;23.70;99.90;;;;;;5026187;28;20955;-73
2023/05/30 08:58:41;;;;;;;0.60;0.55;;;24.00;99.90;;;;;;5028198;28;20440;-72
2023/05/30 09:01:10;;;;;;;1.10;0.65;;;24.10;99.90;;;;;;5029545;28;20510;-73
2023/05/30 09:03:42;;;;;;;0.40;0.40;;;24.10;99.90;;;;;;5028734;28;20487;-73
2023/05/30 09:06:10;;;;;;;2.17;0.65;;;24.40;99.90;;;;;;5028711;28;20471;-73
2023/05/30 09:08:41;;;;;;;1.60;0.60;;;24.70;99.90;;;;;;5052311;28;20423;-73
2023/05/30 09:11:09;;;;;;;0.98;0.60;;;24.60;99.90;;;;;;5054416;28;20462;-72
2023/05/30 09:13:36;;;;;;;0.30;0.30;;;24.50;99.90;;;;;;5050064;28;20966;-73
2023/05/30 09:16:03;;;;;;;0.50;0.50;;;24.60;99.90;;;;;;5058565;28;20439;-73
2023/05/30 09:18:32;;;;;;;1.77;0.73;;;24.20;99.90;;;;;;5050507;28;20656;-73
2023/05/30 09:21:00;;;;;;;1.80;0.40;;;23.90;99.90;;;;;;5046444;28;20436;-73
2023/05/30 09:23:29;;;;;;;0.70;0.70;;;23.90;99.90;;;;;;5056747;28;20441;-73
2023/05/30 09:25:59;;;;;;;2.78;0.73;;;24.20;99.90;;;;;;5062348;28;20427;-73
2023/05/30 09:28:28;;;;;;;4.10;0.57;;;24.20;99.90;;;;;;5059499;28;20433;-73
2023/05/30 09:30:56;;;;;;;2.70;0.70;;;24.20;99.90;;;;;;5060703;28;20773;-73
2023/05/30 09:33:51;;;;;;;0.95;0.68;;;24.30;99.90;;;;;;5051093;28;20463;-74
2023/05/30 09:36:24;;;;;;;1.30;0.73;;;24.50;99.90;;;;;;5063447;28;20909;-73
2023/05/30 09:39:04;;;;;;;0.90;0.70;;;24.40;99.90;;;;;;5064023;28;20433;-73
2023/05/30 09:41:32;;;;;;;2.33;0.65;;;24.20;99.90;;;;;;5083052;28;20980;-73
2023/05/30 09:43:59;;;;;;;0.50;0.50;;;24.10;99.90;;;;;;5070321;28;20431;-73
2023/05/30 09:46:30;;;;;;;0.40;0.40;;;24.20;99.90;;;;;;5056110;28;20421;-73
2023/05/30 09:48:57;;;;;;;1.40;0.60;;;24.00;99.90;;;;;;5049897;28;20429;-73
2023/05/30 09:51:29;;;;;;;0.60;0.52;;;24.40;99.90;;;;;;5051986;28;20456;-73
2023/05/30 09:54:06;;;;;;;0.50;0.50;;;24.50;99.90;;;;;;5048398;28;20491;-73
2023/05/30 09:56:37;;;;;;;1.80;0.73;;;24.50;99.90;;;;;;5036791;28;20433;-73
2023/05/30 09:59:12;;;;;;;0.43;0.43;;;24.50;99.90;;;;;;5036819;28;21072;-73
2023/05/30 10:01:45;;;;;;;1.50;0.80;;;24.80;99.90;;;;;;5037634;28;20433;-74
2023/05/30 10:04:21;;;;;;;0.70;0.70;;;24.90;99.90;;;;;;5045305;28;20429;-73
2023/05/30 10:06:55;;;;;;;1.02;0.60;;;25.20;99.90;;;;;;5055740;28;20425;-73
2023/05/30 10:09:29;;;;;;;0.63;0.50;;;24.90;99.90;;;;;;5058762;28;20878;-73
2023/05/30 10:11:56;;;;;;;3.90;0.40;;;24.60;99.90;;;;;;5065159;28;20759;-73
2023/05/30 10:14:23;;;;;;;2.00;0.60;;;24.50;99.90;;;;;;5062441;28;20794;-73
2023/05/30 10:17:00;;;;;;;1.10;0.52;;;24.40;99.90;;;;;;5058634;28;21200;-73
2023/05/30 10:19:40;;;;;;;1.60;0.47;;;24.10;99.90;;;;;;5057978;28;20451;-73
2023/05/30 10:22:08;;;;;;;0.40;0.40;;;24.10;99.90;;;;;;5059515;28;20432;-72
2023/05/30 10:24:36;;;;;;;0.50;0.50;;;23.90;99.90;;;;;;5050103;28;20874;-72
2023/05/30 10:27:04;;;;;;;0.77;0.77;;;23.90;99.90;;;;;;5059628;28;20468;-71
2023/05/30 10:29:40;;;;;;;1.40;0.70;;;23.70;99.90;;;;;;5064664;28;20435;-72
2023/05/30 10:32:15;;;;;;;0.38;0.38;;;23.90;99.90;;;;;;5047920;28;20514;-74
2023/05/30 10:34:47;;;;;;;0.30;0.30;;;24.00;99.90;;;;;;5057535;28;20420;-72
2023/05/30 10:37:15;;;;;;;5.70;1.08;;;23.90;99.90;;;;;;5042052;28;20441;-74
2023/05/30 10:39:48;;;;;;;4.28;1.10;;;24.20;99.90;;;;;;5052400;28;20421;-72
2023/05/30 10:42:46;;;;;;;1.00;1.00;;;24.20;99.90;;;;;;5045191;28;20429;-72
2023/05/30 10:45:54;;;;;;;0.70;0.70;;;24.20;99.90;;;;;;5026079;28;20969;-73
2023/05/30 10:48:27;;;;;;;1.02;0.60;;;24.70;99.90;;;;;;5059783;28;20514;-73
2023/05/30 10:50:58;;;;;;;0.63;0.63;;;24.90;99.90;;;;;;5067994;28;20485;-73
2023/05/30 10:53:40;;;;;;;0.70;0.60;;;24.90;99.90;;;;;;5066331;28;20423;-73
2023/05/30 10:56:25;;;;;;;1.10;0.47;;;25.20;99.90;;;;;;5066306;28;20779;-73
2023/05/30 10:58:54;;;;;;;1.85;0.77;;;25.50;99.90;;;;;;5059363;28;20489;-73
2023/05/30 11:01:32;;;;;;;0.50;0.50;;;25.10;99.90;;;;;;5067995;28;20420;-73
2023/05/30 11:04:08;;;;;;;1.30;0.67;;;24.20;99.90;;;;;;5062997;28;20608;-73
2023/05/30 11:06:45;;;;;;;1.40;0.50;;;24.60;99.90;;;;;;5067433;28;20460;-73
2023/05/30 11:09:16;;;;;;;1.97;0.80;;;24.90;99.90;;;;;;5060721;28;20566;-73
2023/05/30 11:11:45;;;;;;;4.70;0.73;;;24.90;99.90;;;;;;5052913;28;20435;-73
2023/05/30 11:14:14;;;;;;;0.80;0.80;;;25.20;99.90;;;;;;5052323;28;21018;-73
2023/05/30 11:17:00;;;;;;;0.70;0.67;;;25.30;99.90;;;;;;5052629;28;20505;-73
2023/05/30 11:19:49;;;;;;;1.10;0.80;;;25.40;99.90;;;;;;5041193;28;20552;-73
2023/05/30 11:22:17;;;;;;;0.65;0.65;;;25.50;99.90;;;;;;5034323;28;20452;-73
2023/05/30 11:24:45;;;;;;;0.77;0.77;;;25.10;99.90;;;;;;5033847;28;20461;-73
2023/05/30 11:27:15;;;;;;;0.55;0.55;;;25.00;99.90;;;;;;5032055;28;20441;-74
2023/05/30 11:29:55;;;;;;;1.70;0.63;;;24.90;99.90;;;;;;5032519;28;20439;-73
2023/05/30 11:32:23;;;;;;;0.47;0.47;;;25.00;99.90;;;;;;5033862;28;20435;-74
2023/05/30 11:35:03;;;;;;;1.60;0.90;;;25.20;99.90;;;;;;5031546;28;20432;-73
2023/05/30 11:37:32;;;;;;;1.92;0.88;;;25.00;99.90;;;;;;5033978;28;20441;-74
2023/05/30 11:40:01;;;;;;;3.50;0.70;;;25.00;99.90;;;;;;5034902;28;22195;-74
2023/05/30 11:42:31;;;;;;;2.50;0.40;;;25.30;99.90;;;;;;5034574;28;20866;-73
2023/05/30 11:44:58;;;;;;;0.50;0.50;;;25.40;99.90;;;;;;5033377;28;20443;-73
2023/05/30 11:47:25;;;;;;;0.50;0.50;;;25.40;99.90;;;;;;5033467;28;20557;-73
2023/05/30 11:50:12;;;;;;;2.00;0.60;;;25.40;99.90;;;;;;5035155;28;20496;-73
2023/05/30 11:52:39;;;;;;;0.70;0.32;;;25.50;99.90;;;;;;5033921;28;20993;-73
2023/05/30 11:55:06;;;;;;;0.90;0.57;;;25.70;99.90;;;;;;5031711;28;20421;-73
2023/05/30 11:57:35;;;;;;;1.65;0.65;;;25.50;99.90;;;;;;5034476;28;20515;-74
2023/05/30 12:00:07;;;;;;;1.45;0.70;;;25.50;99.90;;;;;;5031789;28;20437;-73
2023/05/30 12:02:38;;;;;;;3.65;1.10;;;25.20;99.90;;;;;;5032677;28;20494;-73
2023/05/30 12:05:05;;;;;;;0.40;0.40;;;25.30;99.90;;;;;;5032780;28;20437;-73
2023/05/30 12:07:33;;;;;;;0.80;0.80;;;25.20;99.90;;;;;;5031998;28;20429;-73
2023/05/30 12:10:01;;;;;;;0.60;0.43;;;24.80;99.90;;;;;;5034341;28;20552;-75
2023/05/30 12:12:27;;;;;;;0.70;0.50;;;24.80;99.90;;;;;;5029935;28;20457;-72
2023/05/30 12:14:55;;;;;;;0.30;0.30;;;24.60;99.90;;;;;;5032976;28;20531;-72
2023/05/30 12:17:25;;;;;;;3.92;0.98;;;24.60;99.90;;;;;;5033281;28;20421;-73
2023/05/30 12:19:56;;;;;;;0.60;0.52;;;24.40;99.90;;;;;;5031750;28;20927;-74
2023/05/30 12:22:24;;;;;;;1.98;0.38;;;24.40;99.90;;;;;;5062042;28;20443;-74
2023/05/30 12:24:52;;;;;;;0.40;0.40;;;24.50;99.90;;;;;;5030835;28;20515;-74
2023/05/30 12:27:26;;;;;;;0.90;0.60;;;24.70;99.90;;;;;;5031451;28;20997;-73
2023/05/30 12:29:53;;;;;;;0.90;0.63;;;24.90;99.90;;;;;;5029541;28;20438;-73
2023/05/30 12:32:24;;;;;;;0.38;0.38;;;25.10;99.90;;;;;;5033615;28;20496;-73
2023/05/30 12:34:58;;;;;;;0.68;0.65;;;25.10;99.90;;;;;;5031367;28;20433;-73
2023/05/30 12:37:33;;;;;;;1.13;0.65;;;25.30;99.90;;;;;;5032315;28;20503;-74
2023/05/30 12:40:02;;;;;;;0.40;0.40;;;25.30;99.90;;;;;;5032740;28;20444;-74
2023/05/30 12:42:30;;;;;;;4.30;1.20;;;25.30;99.90;;;;;;5027644;28;20455;-73
2023/05/30 12:45:02;;;;;;;0.60;0.40;;;25.40;99.90;;;;;;5031614;28;20516;-73
2023/05/30 12:47:31;;;;;;;1.23;0.70;;;25.50;99.90;;;;;;5032083;28;20552;-74
2023/05/30 12:50:02;;;;;;;1.77;0.73;;;25.50;99.90;;;;;;5034566;28;20446;-74
2023/05/30 12:52:33;;;;;;;2.60;0.50;;;25.50;99.90;;;;;;5032540;28;20437;-73
2023/05/30 12:55:00;;;;;;;1.10;0.40;;;25.50;99.90;;;;;;5030419;28;20798;-73
2023/05/30 12:57:27;;;;;;;1.05;0.70;;;25.20;99.90;;;;;;5063740;28;20440;-74
2023/05/30 12:59:54;;;;;;;1.40;0.80;;;25.20;99.90;;;;;;5032520;28;20831;-73
2023/05/30 13:02:24;;;;;;;0.43;0.43;;;25.20;99.90;;;;;;5032322;28;20593;-73
2023/05/30 13:04:52;;;;;;;0.40;0.23;;;24.90;99.90;;;;;;5030549;28;20779;-74
2023/05/30 13:07:20;;;;;;;3.10;0.90;;;25.20;99.90;;;;;;5032611;28;20472;-74
2023/05/30 13:09:47;;;;;;;0.68;0.68;;;25.50;99.90;;;;;;5034186;28;20946;-73